sensor_id;sensor_type;location;lat;lon;timestamp;P1;durP1;ratioP1;P2;durP2;ratioP2
11024;SDS011;22890;51.820;8.682;2023-04-25T00:02:12;11.40;;;6.07;;
11024;SDS011;22890;51.820;8.682;2023-04-25T00:04:39;11.10;;;4.73;;
11024;SDS011;22890;51.820;8.682;2023-04-25T00:07:07;14.30;;;5.20;;
11024;SDS011;22890;51.820;8.682;2023-04-25T00:09:34;11.77;;;5.03;;
11024;SDS011;22890;51.820;8.682;2023-04-25T00:12:00;11.17;;;5.03;;
11024;SDS011;22890;51.820;8.682;2023-04-25T00:14:28;11.47;;;4.73;;
11024;SDS011;22890;51.820;8.682;2023-04-25T00:16:55;10.63;;;4.87;;
11024;SDS011;22890;51.820;8.682;2023-04-25T00:19:22;10.87;;;4.43;;
11024;SDS011;22890;51.820;8.682;2023-04-25T00:21:49;8.20;;;4.47;;
11024;SDS011;22890;51.820;8.682;2023-04-25T00:24:16;11.07;;;5.20;;
11024;SDS011;22890;51.820;8.682;2023-04-25T00:26:43;16.00;;;4.40;;
11024;SDS011;22890;51.820;8.682;2023-04-25T00:29:10;15.47;;;4.90;;
11024;SDS011;22890;51.820;8.682;2023-04-25T00:31:37;11.40;;;4.40;;
11024;SDS011;22890;51.820;8.682;2023-04-25T00:34:05;14.03;;;4.93;;
11024;SDS011;22890;51.820;8.682;2023-04-25T00:36:34;11.20;;;4.63;;
11024;SDS011;22890;51.820;8.682;2023-04-25T00:39:02;10.10;;;4.27;;
11024;SDS011;22890;51.820;8.682;2023-04-25T00:41:30;8.67;;;4.40;;
11024;SDS011;22890;51.820;8.682;2023-04-25T00:43:57;16.63;;;5.43;;
11024;SDS011;22890;51.820;8.682;2023-04-25T00:46:26;10.13;;;4.40;;
11024;SDS011;22890;51.820;8.682;2023-04-25T00:48:53;12.60;;;4.67;;
11024;SDS011;22890;51.820;8.682;2023-04-25T00:51:20;7.57;;;4.57;;
11024;SDS011;22890;51.820;8.682;2023-04-25T00:53:48;10.93;;;5.00;;
11024;SDS011;22890;51.820;8.682;2023-04-25T00:56:16;7.83;;;4.37;;
11024;SDS011;22890;51.820;8.682;2023-04-25T00:58:44;12.03;;;5.13;;
11024;SDS011;22890;51.820;8.682;2023-04-25T01:01:11;15.07;;;5.07;;
11024;SDS011;22890;51.820;8.682;2023-04-25T01:03:39;9.80;;;4.70;;
11024;SDS011;22890;51.820;8.682;2023-04-25T01:06:08;12.77;;;5.20;;
11024;SDS011;22890;51.820;8.682;2023-04-25T01:08:37;16.07;;;6.00;;
11024;SDS011;22890;51.820;8.682;2023-04-25T01:11:05;14.13;;;5.60;;
11024;SDS011;22890;51.820;8.682;2023-04-25T01:13:32;14.27;;;5.57;;
11024;SDS011;22890;51.820;8.682;2023-04-25T01:15:59;15.47;;;6.03;;
11024;SDS011;22890;51.820;8.682;2023-04-25T01:18:26;10.93;;;5.43;;
11024;SDS011;22890;51.820;8.682;2023-04-25T01:20:54;11.83;;;6.63;;
11024;SDS011;22890;51.820;8.682;2023-04-25T01:23:22;17.90;;;6.00;;
11024;SDS011;22890;51.820;8.682;2023-04-25T01:25:50;14.33;;;6.53;;
11024;SDS011;22890;51.820;8.682;2023-04-25T01:28:17;11.23;;;6.43;;
11024;SDS011;22890;51.820;8.682;2023-04-25T01:30:44;12.60;;;6.43;;
11024;SDS011;22890;51.820;8.682;2023-04-25T01:33:12;14.43;;;6.97;;
11024;SDS011;22890;51.820;8.682;2023-04-25T01:35:40;13.30;;;6.50;;
11024;SDS011;22890;51.820;8.682;2023-04-25T01:38:07;19.60;;;6.63;;
11024;SDS011;22890;51.820;8.682;2023-04-25T01:40:34;12.17;;;6.93;;
11024;SDS011;22890;51.820;8.682;2023-04-25T01:43:04;18.30;;;7.30;;
11024;SDS011;22890;51.820;8.682;2023-04-25T01:45:33;16.60;;;7.43;;
11024;SDS011;22890;51.820;8.682;2023-04-25T01:48:00;12.40;;;6.87;;
11024;SDS011;22890;51.820;8.682;2023-04-25T01:50:27;17.03;;;6.83;;
11024;SDS011;22890;51.820;8.682;2023-04-25T01:52:55;13.00;;;6.60;;
11024;SDS011;22890;51.820;8.682;2023-04-25T01:55:22;15.27;;;6.77;;
11024;SDS011;22890;51.820;8.682;2023-04-25T01:57:59;14.53;;;7.50;;
11024;SDS011;22890;51.820;8.682;2023-04-25T02:00:47;13.90;;;6.37;;
11024;SDS011;22890;51.820;8.682;2023-04-25T02:03:14;14.53;;;7.47;;
11024;SDS011;22890;51.820;8.682;2023-04-25T02:05:41;18.17;;;7.23;;
11024;SDS011;22890;51.820;8.682;2023-04-25T02:08:11;18.17;;;7.90;;
11024;SDS011;22890;51.820;8.682;2023-04-25T02:10:38;14.80;;;7.87;;
11024;SDS011;22890;51.820;8.682;2023-04-25T02:13:13;13.90;;;6.83;;
11024;SDS011;22890;51.820;8.682;2023-04-25T02:15:59;14.10;;;7.47;;
11024;SDS011;22890;51.820;8.682;2023-04-25T02:18:26;11.53;;;6.83;;
11024;SDS011;22890;51.820;8.682;2023-04-25T02:20:53;17.17;;;7.63;;
11024;SDS011;22890;51.820;8.682;2023-04-25T02:23:20;14.67;;;7.57;;
11024;SDS011;22890;51.820;8.682;2023-04-25T02:25:48;14.90;;;7.03;;
11024;SDS011;22890;51.820;8.682;2023-04-25T02:28:15;14.53;;;6.57;;
11024;SDS011;22890;51.820;8.682;2023-04-25T02:30:42;14.23;;;7.90;;
11024;SDS011;22890;51.820;8.682;2023-04-25T02:33:09;23.53;;;8.43;;
11024;SDS011;22890;51.820;8.682;2023-04-25T02:35:36;21.13;;;8.67;;
11024;SDS011;22890;51.820;8.682;2023-04-25T02:38:03;20.40;;;7.90;;
11024;SDS011;22890;51.820;8.682;2023-04-25T02:40:32;13.03;;;7.33;;
11024;SDS011;22890;51.820;8.682;2023-04-25T02:42:59;16.07;;;7.30;;
11024;SDS011;22890;51.820;8.682;2023-04-25T02:45:26;14.60;;;7.23;;
11024;SDS011;22890;51.820;8.682;2023-04-25T02:47:54;12.73;;;6.33;;
11024;SDS011;22890;51.820;8.682;2023-04-25T02:50:21;16.30;;;6.87;;
11024;SDS011;22890;51.820;8.682;2023-04-25T02:52:48;13.07;;;7.57;;
11024;SDS011;22890;51.820;8.682;2023-04-25T02:55:21;12.97;;;6.73;;
11024;SDS011;22890;51.820;8.682;2023-04-25T02:57:49;15.57;;;7.40;;
11024;SDS011;22890;51.820;8.682;2023-04-25T03:00:28;13.13;;;7.07;;
11024;SDS011;22890;51.820;8.682;2023-04-25T03:02:55;13.23;;;6.63;;
11024;SDS011;22890;51.820;8.682;2023-04-25T03:05:22;16.60;;;7.90;;
11024;SDS011;22890;51.820;8.682;2023-04-25T03:07:49;11.87;;;6.37;;
11024;SDS011;22890;51.820;8.682;2023-04-25T03:10:16;12.77;;;6.47;;
11024;SDS011;22890;51.820;8.682;2023-04-25T03:12:43;11.50;;;6.70;;
11024;SDS011;22890;51.820;8.682;2023-04-25T03:15:10;13.30;;;7.00;;
11024;SDS011;22890;51.820;8.682;2023-04-25T03:17:37;10.23;;;6.03;;
11024;SDS011;22890;51.820;8.682;2023-04-25T03:20:05;10.40;;;6.07;;
11024;SDS011;22890;51.820;8.682;2023-04-25T03:22:34;12.10;;;6.13;;
11024;SDS011;22890;51.820;8.682;2023-04-25T03:25:01;12.40;;;6.33;;
11024;SDS011;22890;51.820;8.682;2023-04-25T03:27:28;9.93;;;6.20;;
11024;SDS011;22890;51.820;8.682;2023-04-25T03:29:55;8.00;;;5.53;;
11024;SDS011;22890;51.820;8.682;2023-04-25T03:32:23;8.93;;;4.87;;
11024;SDS011;22890;51.820;8.682;2023-04-25T03:34:50;8.90;;;4.57;;
11024;SDS011;22890;51.820;8.682;2023-04-25T03:37:17;7.93;;;3.83;;
11024;SDS011;22890;51.820;8.682;2023-04-25T03:39:44;10.53;;;3.97;;
11024;SDS011;22890;51.820;8.682;2023-04-25T03:42:12;7.47;;;3.27;;
11024;SDS011;22890;51.820;8.682;2023-04-25T03:44:39;8.73;;;3.90;;
11024;SDS011;22890;51.820;8.682;2023-04-25T03:47:06;8.70;;;3.40;;
11024;SDS011;22890;51.820;8.682;2023-04-25T03:49:34;12.03;;;3.37;;
11024;SDS011;22890;51.820;8.682;2023-04-25T03:52:04;12.77;;;3.73;;
11024;SDS011;22890;51.820;8.682;2023-04-25T03:54:37;6.60;;;3.10;;
11024;SDS011;22890;51.820;8.682;2023-04-25T03:57:10;7.47;;;3.30;;
11024;SDS011;22890;51.820;8.682;2023-04-25T03:59:38;13.17;;;3.63;;
11024;SDS011;22890;51.820;8.682;2023-04-25T04:02:08;11.97;;;4.13;;
11024;SDS011;22890;51.820;8.682;2023-04-25T04:04:35;8.43;;;3.37;;
11024;SDS011;22890;51.820;8.682;2023-04-25T04:07:03;11.67;;;3.67;;
11024;SDS011;22890;51.820;8.682;2023-04-25T04:09:34;12.47;;;3.30;;
11024;SDS011;22890;51.820;8.682;2023-04-25T04:12:06;9.33;;;3.40;;
11024;SDS011;22890;51.820;8.682;2023-04-25T04:14:34;12.13;;;4.00;;
11024;SDS011;22890;51.820;8.682;2023-04-25T04:17:02;9.93;;;3.13;;
11024;SDS011;22890;51.820;8.682;2023-04-25T04:19:29;11.03;;;4.13;;
11024;SDS011;22890;51.820;8.682;2023-04-25T04:22:08;13.90;;;3.73;;
11024;SDS011;22890;51.820;8.682;2023-04-25T04:24:37;24.63;;;4.33;;
11024;SDS011;22890;51.820;8.682;2023-04-25T04:27:06;14.70;;;3.90;;
11024;SDS011;22890;51.820;8.682;2023-04-25T04:29:43;10.87;;;3.67;;
11024;SDS011;22890;51.820;8.682;2023-04-25T04:32:14;8.13;;;3.50;;
11024;SDS011;22890;51.820;8.682;2023-04-25T04:34:41;11.30;;;4.73;;
11024;SDS011;22890;51.820;8.682;2023-04-25T04:37:14;9.37;;;4.17;;
11024;SDS011;22890;51.820;8.682;2023-04-25T04:39:42;9.00;;;4.03;;
11024;SDS011;22890;51.820;8.682;2023-04-25T04:42:21;7.40;;;3.40;;
11024;SDS011;22890;51.820;8.682;2023-04-25T04:45:00;11.53;;;4.70;;
11024;SDS011;22890;51.820;8.682;2023-04-25T04:47:55;11.07;;;4.60;;
11024;SDS011;22890;51.820;8.682;2023-04-25T04:50:35;11.37;;;5.20;;
11024;SDS011;22890;51.820;8.682;2023-04-25T04:53:27;15.27;;;4.63;;
11024;SDS011;22890;51.820;8.682;2023-04-25T04:56:13;12.70;;;5.20;;
11024;SDS011;22890;51.820;8.682;2023-04-25T04:58:53;14.07;;;5.00;;
11024;SDS011;22890;51.820;8.682;2023-04-25T05:01:33;14.80;;;5.27;;
11024;SDS011;22890;51.820;8.682;2023-04-25T05:04:15;13.33;;;5.27;;
11024;SDS011;22890;51.820;8.682;2023-04-25T05:06:57;17.87;;;4.60;;
11024;SDS011;22890;51.820;8.682;2023-04-25T05:09:30;9.23;;;4.53;;
11024;SDS011;22890;51.820;8.682;2023-04-25T05:12:29;15.30;;;5.20;;
11024;SDS011;22890;51.820;8.682;2023-04-25T05:15:07;12.70;;;5.07;;
11024;SDS011;22890;51.820;8.682;2023-04-25T05:17:52;14.90;;;4.90;;
11024;SDS011;22890;51.820;8.682;2023-04-25T05:20:27;16.10;;;5.03;;
11024;SDS011;22890;51.820;8.682;2023-04-25T05:23:21;17.40;;;5.43;;
11024;SDS011;22890;51.820;8.682;2023-04-25T05:26:14;14.90;;;4.77;;
11024;SDS011;22890;51.820;8.682;2023-04-25T05:28:52;14.93;;;5.23;;
11024;SDS011;22890;51.820;8.682;2023-04-25T05:31:48;15.30;;;4.50;;
11024;SDS011;22890;51.820;8.682;2023-04-25T05:34:15;18.53;;;6.30;;
11024;SDS011;22890;51.820;8.682;2023-04-25T05:36:50;23.27;;;6.43;;
11024;SDS011;22890;51.820;8.682;2023-04-25T05:39:18;10.20;;;5.03;;
11024;SDS011;22890;51.820;8.682;2023-04-25T05:42:07;15.20;;;5.40;;
11024;SDS011;22890;51.820;8.682;2023-04-25T05:44:53;17.73;;;5.27;;
11024;SDS011;22890;51.820;8.682;2023-04-25T05:47:30;12.57;;;5.40;;
11024;SDS011;22890;51.820;8.682;2023-04-25T05:50:13;30.20;;;6.27;;
11024;SDS011;22890;51.820;8.682;2023-04-25T05:52:49;11.73;;;5.10;;
11024;SDS011;22890;51.820;8.682;2023-04-25T05:55:23;20.63;;;5.57;;
11024;SDS011;22890;51.820;8.682;2023-04-25T05:57:51;16.43;;;4.63;;
11024;SDS011;22890;51.820;8.682;2023-04-25T06:00:18;11.50;;;4.80;;
11024;SDS011;22890;51.820;8.682;2023-04-25T06:02:48;15.60;;;5.83;;
11024;SDS011;22890;51.820;8.682;2023-04-25T06:05:16;24.73;;;5.80;;
11024;SDS011;22890;51.820;8.682;2023-04-25T06:07:46;13.20;;;4.13;;
11024;SDS011;22890;51.820;8.682;2023-04-25T06:10:13;7.83;;;4.13;;
11024;SDS011;22890;51.820;8.682;2023-04-25T06:12:41;23.13;;;5.83;;
11024;SDS011;22890;51.820;8.682;2023-04-25T06:15:09;26.83;;;5.83;;
11024;SDS011;22890;51.820;8.682;2023-04-25T06:17:53;12.67;;;4.87;;
11024;SDS011;22890;51.820;8.682;2023-04-25T06:20:21;19.80;;;5.70;;
11024;SDS011;22890;51.820;8.682;2023-04-25T06:22:51;21.97;;;5.00;;
11024;SDS011;22890;51.820;8.682;2023-04-25T06:25:23;16.70;;;4.80;;
11024;SDS011;22890;51.820;8.682;2023-04-25T06:27:51;16.23;;;5.23;;
11024;SDS011;22890;51.820;8.682;2023-04-25T06:30:18;15.43;;;5.40;;
11024;SDS011;22890;51.820;8.682;2023-04-25T06:32:50;20.53;;;5.17;;
11024;SDS011;22890;51.820;8.682;2023-04-25T06:35:20;15.70;;;4.57;;
11024;SDS011;22890;51.820;8.682;2023-04-25T06:37:48;17.07;;;4.60;;
11024;SDS011;22890;51.820;8.682;2023-04-25T06:40:17;12.03;;;4.73;;
11024;SDS011;22890;51.820;8.682;2023-04-25T06:42:44;13.00;;;4.23;;
11024;SDS011;22890;51.820;8.682;2023-04-25T06:45:30;17.77;;;5.07;;
11024;SDS011;22890;51.820;8.682;2023-04-25T06:47:57;12.43;;;3.80;;
11024;SDS011;22890;51.820;8.682;2023-04-25T06:50:25;10.53;;;4.17;;
11024;SDS011;22890;51.820;8.682;2023-04-25T06:52:52;18.13;;;4.93;;
11024;SDS011;22890;51.820;8.682;2023-04-25T06:55:19;12.33;;;4.27;;
11024;SDS011;22890;51.820;8.682;2023-04-25T06:57:59;12.03;;;4.27;;
11024;SDS011;22890;51.820;8.682;2023-04-25T07:00:49;15.27;;;3.93;;
11024;SDS011;22890;51.820;8.682;2023-04-25T07:03:18;14.43;;;4.50;;
11024;SDS011;22890;51.820;8.682;2023-04-25T07:05:46;16.57;;;4.60;;
11024;SDS011;22890;51.820;8.682;2023-04-25T07:08:13;13.20;;;3.73;;
11024;SDS011;22890;51.820;8.682;2023-04-25T07:10:40;13.83;;;4.00;;
11024;SDS011;22890;51.820;8.682;2023-04-25T07:13:07;12.73;;;3.43;;
11024;SDS011;22890;51.820;8.682;2023-04-25T07:15:35;8.63;;;3.57;;
11024;SDS011;22890;51.820;8.682;2023-04-25T07:18:02;13.40;;;3.73;;
11024;SDS011;22890;51.820;8.682;2023-04-25T07:20:29;8.63;;;3.47;;
11024;SDS011;22890;51.820;8.682;2023-04-25T07:22:57;13.27;;;3.93;;
11024;SDS011;22890;51.820;8.682;2023-04-25T07:25:24;13.10;;;3.43;;
11024;SDS011;22890;51.820;8.682;2023-04-25T07:27:52;15.43;;;3.93;;
11024;SDS011;22890;51.820;8.682;2023-04-25T07:30:20;10.53;;;3.70;;
11024;SDS011;22890;51.820;8.682;2023-04-25T07:32:47;11.23;;;3.67;;
11024;SDS011;22890;51.820;8.682;2023-04-25T07:35:15;12.30;;;3.43;;
11024;SDS011;22890;51.820;8.682;2023-04-25T07:37:43;7.63;;;3.10;;
11024;SDS011;22890;51.820;8.682;2023-04-25T07:40:13;9.57;;;3.70;;
11024;SDS011;22890;51.820;8.682;2023-04-25T07:42:50;12.97;;;3.80;;
11024;SDS011;22890;51.820;8.682;2023-04-25T07:45:25;9.83;;;3.37;;
11024;SDS011;22890;51.820;8.682;2023-04-25T07:47:52;15.43;;;3.90;;
11024;SDS011;22890;51.820;8.682;2023-04-25T07:50:20;15.23;;;3.17;;
11024;SDS011;22890;51.820;8.682;2023-04-25T07:52:47;14.17;;;3.03;;
11024;SDS011;22890;51.820;8.682;2023-04-25T07:55:21;6.87;;;3.20;;
11024;SDS011;22890;51.820;8.682;2023-04-25T07:57:59;12.63;;;3.67;;
11024;SDS011;22890;51.820;8.682;2023-04-25T08:00:28;14.63;;;3.07;;
11024;SDS011;22890;51.820;8.682;2023-04-25T08:03:15;10.27;;;2.83;;
11024;SDS011;22890;51.820;8.682;2023-04-25T08:05:43;11.20;;;3.10;;
11024;SDS011;22890;51.820;8.682;2023-04-25T08:08:12;10.07;;;3.13;;
11024;SDS011;22890;51.820;8.682;2023-04-25T08:10:40;11.13;;;3.23;;
11024;SDS011;22890;51.820;8.682;2023-04-25T08:13:08;10.17;;;3.53;;
11024;SDS011;22890;51.820;8.682;2023-04-25T08:15:35;12.17;;;3.37;;
11024;SDS011;22890;51.820;8.682;2023-04-25T08:18:03;16.37;;;3.97;;
11024;SDS011;22890;51.820;8.682;2023-04-25T08:20:30;10.63;;;3.20;;
11024;SDS011;22890;51.820;8.682;2023-04-25T08:23:00;8.13;;;2.67;;
11024;SDS011;22890;51.820;8.682;2023-04-25T08:26:05;10.53;;;3.10;;
11024;SDS011;22890;51.820;8.682;2023-04-25T08:28:36;15.67;;;3.10;;
11024;SDS011;22890;51.820;8.682;2023-04-25T08:31:02;9.10;;;2.73;;
11024;SDS011;22890;51.820;8.682;2023-04-25T08:33:38;7.13;;;2.60;;
11024;SDS011;22890;51.820;8.682;2023-04-25T08:36:15;7.17;;;2.33;;
11024;SDS011;22890;51.820;8.682;2023-04-25T08:39:00;10.70;;;2.50;;
11024;SDS011;22890;51.820;8.682;2023-04-25T08:41:28;8.90;;;3.00;;
11024;SDS011;22890;51.820;8.682;2023-04-25T08:43:55;9.00;;;2.40;;
11024;SDS011;22890;51.820;8.682;2023-04-25T08:46:23;7.43;;;2.30;;
11024;SDS011;22890;51.820;8.682;2023-04-25T08:49:03;3.90;;;2.17;;
11024;SDS011;22890;51.820;8.682;2023-04-25T08:51:31;13.73;;;2.50;;
11024;SDS011;22890;51.820;8.682;2023-04-25T08:54:11;11.07;;;2.43;;
11024;SDS011;22890;51.820;8.682;2023-04-25T08:56:45;16.93;;;3.23;;
11024;SDS011;22890;51.820;8.682;2023-04-25T08:59:13;12.33;;;2.73;;
11024;SDS011;22890;51.820;8.682;2023-04-25T09:01:43;5.13;;;2.33;;
11024;SDS011;22890;51.820;8.682;2023-04-25T09:04:11;8.37;;;2.77;;
11024;SDS011;22890;51.820;8.682;2023-04-25T09:06:39;3.93;;;2.07;;
11024;SDS011;22890;51.820;8.682;2023-04-25T09:09:08;8.00;;;2.47;;
11024;SDS011;22890;51.820;8.682;2023-04-25T09:11:36;7.70;;;1.90;;
11024;SDS011;22890;51.820;8.682;2023-04-25T09:14:16;8.17;;;2.27;;
11024;SDS011;22890;51.820;8.682;2023-04-25T09:17:11;4.43;;;1.73;;
11024;SDS011;22890;51.820;8.682;2023-04-25T09:19:47;9.60;;;1.90;;
11024;SDS011;22890;51.820;8.682;2023-04-25T09:22:25;4.97;;;1.73;;
11024;SDS011;22890;51.820;8.682;2023-04-25T09:24:52;12.20;;;2.30;;
11024;SDS011;22890;51.820;8.682;2023-04-25T09:27:22;6.27;;;1.87;;
11024;SDS011;22890;51.820;8.682;2023-04-25T09:29:56;8.80;;;2.63;;
11024;SDS011;22890;51.820;8.682;2023-04-25T09:32:27;9.30;;;2.17;;
11024;SDS011;22890;51.820;8.682;2023-04-25T09:34:56;8.33;;;2.10;;
11024;SDS011;22890;51.820;8.682;2023-04-25T09:37:27;5.70;;;2.20;;
11024;SDS011;22890;51.820;8.682;2023-04-25T09:40:13;6.50;;;2.60;;
11024;SDS011;22890;51.820;8.682;2023-04-25T09:42:51;8.93;;;2.20;;
11024;SDS011;22890;51.820;8.682;2023-04-25T09:45:18;5.67;;;2.00;;
11024;SDS011;22890;51.820;8.682;2023-04-25T09:47:46;12.53;;;2.70;;
11024;SDS011;22890;51.820;8.682;2023-04-25T09:50:17;5.73;;;1.57;;
11024;SDS011;22890;51.820;8.682;2023-04-25T09:53:04;4.57;;;1.67;;
11024;SDS011;22890;51.820;8.682;2023-04-25T09:55:59;4.00;;;1.50;;
11024;SDS011;22890;51.820;8.682;2023-04-25T09:58:29;13.10;;;1.93;;
11024;SDS011;22890;51.820;8.682;2023-04-25T10:00:59;4.77;;;1.70;;
11024;SDS011;22890;51.820;8.682;2023-04-25T10:03:40;4.13;;;1.77;;
11024;SDS011;22890;51.820;8.682;2023-04-25T10:06:19;5.10;;;1.43;;
11024;SDS011;22890;51.820;8.682;2023-04-25T10:08:49;8.97;;;1.50;;
11024;SDS011;22890;51.820;8.682;2023-04-25T10:11:19;7.73;;;1.80;;
11024;SDS011;22890;51.820;8.682;2023-04-25T10:13:49;5.93;;;1.80;;
11024;SDS011;22890;51.820;8.682;2023-04-25T10:16:17;8.77;;;2.23;;
11024;SDS011;22890;51.820;8.682;2023-04-25T10:18:45;9.10;;;1.67;;
11024;SDS011;22890;51.820;8.682;2023-04-25T10:21:12;4.93;;;2.07;;
11024;SDS011;22890;51.820;8.682;2023-04-25T10:23:39;6.93;;;1.60;;
11024;SDS011;22890;51.820;8.682;2023-04-25T10:26:06;6.10;;;1.70;;
11024;SDS011;22890;51.820;8.682;2023-04-25T10:28:58;2.90;;;1.47;;
11024;SDS011;22890;51.820;8.682;2023-04-25T10:31:27;3.70;;;1.40;;
11024;SDS011;22890;51.820;8.682;2023-04-25T10:33:54;5.50;;;2.17;;
11024;SDS011;22890;51.820;8.682;2023-04-25T10:36:21;6.20;;;1.77;;
11024;SDS011;22890;51.820;8.682;2023-04-25T10:38:49;8.03;;;1.67;;
11024;SDS011;22890;51.820;8.682;2023-04-25T10:41:17;3.93;;;1.70;;
11024;SDS011;22890;51.820;8.682;2023-04-25T10:43:46;6.63;;;2.03;;
11024;SDS011;22890;51.820;8.682;2023-04-25T10:46:18;9.33;;;1.97;;
11024;SDS011;22890;51.820;8.682;2023-04-25T10:51:22;4.07;;;2.20;;
11024;SDS011;22890;51.820;8.682;2023-04-25T10:56:28;2.67;;;1.30;;
11024;SDS011;22890;51.820;8.682;2023-04-25T10:59:05;3.07;;;1.40;;
11024;SDS011;22890;51.820;8.682;2023-04-25T11:01:36;7.30;;;1.70;;
11024;SDS011;22890;51.820;8.682;2023-04-25T11:04:05;6.67;;;1.30;;
11024;SDS011;22890;51.820;8.682;2023-04-25T11:09:35;10.57;;;1.90;;
11024;SDS011;22890;51.820;8.682;2023-04-25T11:12:04;3.03;;;1.90;;
11024;SDS011;22890;51.820;8.682;2023-04-25T11:14:33;3.23;;;1.30;;
11024;SDS011;22890;51.820;8.682;2023-04-25T11:17:00;3.30;;;1.70;;
11024;SDS011;22890;51.820;8.682;2023-04-25T11:19:28;10.40;;;1.60;;
11024;SDS011;22890;51.820;8.682;2023-04-25T11:21:56;5.33;;;1.70;;
11024;SDS011;22890;51.820;8.682;2023-04-25T11:24:31;2.30;;;1.20;;
11024;SDS011;22890;51.820;8.682;2023-04-25T11:26:58;3.37;;;1.50;;
11024;SDS011;22890;51.820;8.682;2023-04-25T11:29:26;6.33;;;2.00;;
11024;SDS011;22890;51.820;8.682;2023-04-25T11:31:54;8.20;;;2.10;;
11024;SDS011;22890;51.820;8.682;2023-04-25T11:34:24;4.77;;;1.80;;
11024;SDS011;22890;51.820;8.682;2023-04-25T11:36:51;4.80;;;1.67;;
11024;SDS011;22890;51.820;8.682;2023-04-25T11:39:19;4.03;;;1.37;;
11024;SDS011;22890;51.820;8.682;2023-04-25T11:41:46;5.27;;;2.60;;
11024;SDS011;22890;51.820;8.682;2023-04-25T11:44:17;7.97;;;1.57;;
11024;SDS011;22890;51.820;8.682;2023-04-25T11:46:44;12.13;;;5.30;;
11024;SDS011;22890;51.820;8.682;2023-04-25T11:49:12;9.93;;;1.47;;
11024;SDS011;22890;51.820;8.682;2023-04-25T11:51:40;3.07;;;1.77;;
11024;SDS011;22890;51.820;8.682;2023-04-25T11:54:08;5.47;;;1.63;;
11024;SDS011;22890;51.820;8.682;2023-04-25T11:56:35;6.17;;;2.53;;
11024;SDS011;22890;51.820;8.682;2023-04-25T11:59:03;4.57;;;1.70;;
11024;SDS011;22890;51.820;8.682;2023-04-25T12:01:33;5.00;;;1.60;;
11024;SDS011;22890;51.820;8.682;2023-04-25T12:04:11;1.87;;;1.00;;
11024;SDS011;22890;51.820;8.682;2023-04-25T12:06:40;4.63;;;1.00;;
11024;SDS011;22890;51.820;8.682;2023-04-25T12:09:09;3.47;;;1.43;;
11024;SDS011;22890;51.820;8.682;2023-04-25T12:14:10;7.63;;;1.60;;
11024;SDS011;22890;51.820;8.682;2023-04-25T12:16:44;3.37;;;1.77;;
11024;SDS011;22890;51.820;8.682;2023-04-25T12:19:15;3.50;;;1.57;;
11024;SDS011;22890;51.820;8.682;2023-04-25T12:21:43;3.57;;;1.83;;
11024;SDS011;22890;51.820;8.682;2023-04-25T12:24:24;5.97;;;2.23;;
11024;SDS011;22890;51.820;8.682;2023-04-25T12:26:53;5.57;;;1.30;;
11024;SDS011;22890;51.820;8.682;2023-04-25T12:29:32;6.43;;;1.67;;
11024;SDS011;22890;51.820;8.682;2023-04-25T12:32:14;5.57;;;1.40;;
11024;SDS011;22890;51.820;8.682;2023-04-25T12:34:42;4.17;;;1.33;;
11024;SDS011;22890;51.820;8.682;2023-04-25T12:37:09;1.23;;;1.13;;
11024;SDS011;22890;51.820;8.682;2023-04-25T12:39:36;5.73;;;1.40;;
11024;SDS011;22890;51.820;8.682;2023-04-25T12:42:03;5.53;;;1.40;;
11024;SDS011;22890;51.820;8.682;2023-04-25T12:44:33;2.97;;;1.27;;
11024;SDS011;22890;51.820;8.682;2023-04-25T12:47:00;2.07;;;0.97;;
11024;SDS011;22890;51.820;8.682;2023-04-25T12:49:27;1.70;;;1.30;;
11024;SDS011;22890;51.820;8.682;2023-04-25T12:51:54;5.60;;;1.23;;
11024;SDS011;22890;51.820;8.682;2023-04-25T12:54:21;6.00;;;1.63;;
11024;SDS011;22890;51.820;8.682;2023-04-25T12:56:48;4.67;;;1.53;;
11024;SDS011;22890;51.820;8.682;2023-04-25T12:59:16;1.60;;;0.87;;
11024;SDS011;22890;51.820;8.682;2023-04-25T13:01:43;3.90;;;1.50;;
11024;SDS011;22890;51.820;8.682;2023-04-25T13:04:11;3.20;;;1.27;;
11024;SDS011;22890;51.820;8.682;2023-04-25T13:06:39;4.33;;;1.23;;
11024;SDS011;22890;51.820;8.682;2023-04-25T13:09:06;3.53;;;1.13;;
11024;SDS011;22890;51.820;8.682;2023-04-25T13:11:33;2.63;;;1.30;;
11024;SDS011;22890;51.820;8.682;2023-04-25T13:14:00;1.63;;;1.03;;
11024;SDS011;22890;51.820;8.682;2023-04-25T13:16:27;2.97;;;1.07;;
11024;SDS011;22890;51.820;8.682;2023-04-25T13:18:54;2.50;;;1.60;;
11024;SDS011;22890;51.820;8.682;2023-04-25T13:21:22;4.50;;;1.80;;
11024;SDS011;22890;51.820;8.682;2023-04-25T13:23:49;2.33;;;1.77;;
11024;SDS011;22890;51.820;8.682;2023-04-25T13:26:16;3.90;;;1.57;;
11024;SDS011;22890;51.820;8.682;2023-04-25T13:28:44;6.10;;;2.97;;
11024;SDS011;22890;51.820;8.682;2023-04-25T13:31:11;3.63;;;1.33;;
11024;SDS011;22890;51.820;8.682;2023-04-25T13:33:38;3.27;;;1.53;;
11024;SDS011;22890;51.820;8.682;2023-04-25T13:36:05;2.70;;;1.60;;
11024;SDS011;22890;51.820;8.682;2023-04-25T13:38:33;1.43;;;0.90;;
11024;SDS011;22890;51.820;8.682;2023-04-25T13:40:59;2.27;;;1.50;;
11024;SDS011;22890;51.820;8.682;2023-04-25T13:43:27;1.93;;;1.10;;
11024;SDS011;22890;51.820;8.682;2023-04-25T13:45:53;3.30;;;0.97;;
11024;SDS011;22890;51.820;8.682;2023-04-25T13:48:21;2.00;;;1.13;;
11024;SDS011;22890;51.820;8.682;2023-04-25T13:50:48;1.10;;;0.60;;
11024;SDS011;22890;51.820;8.682;2023-04-25T13:53:15;1.17;;;0.60;;
11024;SDS011;22890;51.820;8.682;2023-04-25T13:55:43;3.53;;;1.23;;
11024;SDS011;22890;51.820;8.682;2023-04-25T13:58:10;2.00;;;1.00;;
11024;SDS011;22890;51.820;8.682;2023-04-25T14:00:37;1.47;;;0.80;;
11024;SDS011;22890;51.820;8.682;2023-04-25T14:03:05;1.90;;;0.80;;
11024;SDS011;22890;51.820;8.682;2023-04-25T14:05:34;2.10;;;1.00;;
11024;SDS011;22890;51.820;8.682;2023-04-25T14:08:05;1.20;;;0.70;;
11024;SDS011;22890;51.820;8.682;2023-04-25T14:10:34;3.97;;;1.23;;
11024;SDS011;22890;51.820;8.682;2023-04-25T14:13:01;2.80;;;0.83;;
11024;SDS011;22890;51.820;8.682;2023-04-25T14:15:32;1.30;;;0.97;;
11024;SDS011;22890;51.820;8.682;2023-04-25T14:18:00;3.70;;;0.70;;
11024;SDS011;22890;51.820;8.682;2023-04-25T14:20:27;1.67;;;1.20;;
11024;SDS011;22890;51.820;8.682;2023-04-25T14:22:54;3.27;;;1.03;;
11024;SDS011;22890;51.820;8.682;2023-04-25T14:25:23;1.77;;;1.00;;
11024;SDS011;22890;51.820;8.682;2023-04-25T14:27:51;2.93;;;0.80;;
11024;SDS011;22890;51.820;8.682;2023-04-25T14:30:18;2.83;;;0.87;;
11024;SDS011;22890;51.820;8.682;2023-04-25T14:32:46;5.10;;;0.90;;
11024;SDS011;22890;51.820;8.682;2023-04-25T14:35:14;1.20;;;0.70;;
11024;SDS011;22890;51.820;8.682;2023-04-25T14:37:41;1.80;;;0.77;;
11024;SDS011;22890;51.820;8.682;2023-04-25T14:40:09;1.77;;;0.87;;
11024;SDS011;22890;51.820;8.682;2023-04-25T14:42:38;2.57;;;1.10;;
11024;SDS011;22890;51.820;8.682;2023-04-25T14:45:06;2.00;;;0.90;;
11024;SDS011;22890;51.820;8.682;2023-04-25T14:47:37;5.47;;;1.30;;
11024;SDS011;22890;51.820;8.682;2023-04-25T14:50:07;3.03;;;1.27;;
11024;SDS011;22890;51.820;8.682;2023-04-25T14:52:34;2.80;;;1.57;;
11024;SDS011;22890;51.820;8.682;2023-04-25T14:55:02;3.30;;;1.60;;
11024;SDS011;22890;51.820;8.682;2023-04-25T14:57:32;1.87;;;1.00;;
11024;SDS011;22890;51.820;8.682;2023-04-25T14:59:59;1.77;;;1.00;;
11024;SDS011;22890;51.820;8.682;2023-04-25T15:02:27;3.07;;;1.40;;
11024;SDS011;22890;51.820;8.682;2023-04-25T15:04:54;2.83;;;1.30;;
11024;SDS011;22890;51.820;8.682;2023-04-25T15:07:24;3.13;;;1.43;;
11024;SDS011;22890;51.820;8.682;2023-04-25T15:09:51;2.50;;;1.10;;
11024;SDS011;22890;51.820;8.682;2023-04-25T15:12:19;2.97;;;1.13;;